createdAt,value
2019-01-21T00:01:23.429Z,30.50
2019-01-21T00:03:50.598Z,32.10
2019-01-21T00:06:17.787Z,32.63
2019-01-21T00:08:44.974Z,27.03
2019-01-21T00:11:12.159Z,27.90
2019-01-21T00:13:39.367Z,28.00
2019-01-21T00:16:06.607Z,32.83
2019-01-21T00:18:33.789Z,33.70
2019-01-21T00:21:01.006Z,34.17
2019-01-21T00:23:28.182Z,28.00
2019-01-21T00:25:55.368Z,32.37
2019-01-21T00:28:22.555Z,30.07
2019-01-21T00:30:49.747Z,29.83
2019-01-21T00:33:16.933Z,33.70
2019-01-21T00:35:44.116Z,27.50
2019-01-21T00:38:11.325Z,28.83
2019-01-21T00:40:38.506Z,29.70
2019-01-21T00:43:05.675Z,30.27
2019-01-21T00:45:32.878Z,27.97
2019-01-21T00:48:00.065Z,25.27
2019-01-21T00:50:27.255Z,31.47
2019-01-21T00:52:54.422Z,24.17
2019-01-21T00:55:21.625Z,30.30
2019-01-21T00:57:48.798Z,24.87
2019-01-21T01:00:19.933Z,27.83
2019-01-21T01:02:47.191Z,29.73
2019-01-21T01:05:14.380Z,27.60
2019-01-21T01:07:41.571Z,23.93
2019-01-21T01:10:09.823Z,32.47
2019-01-21T01:12:37.028Z,28.17
2019-01-21T01:15:05.370Z,32.80
2019-01-21T01:17:37.132Z,31.40
2019-01-21T01:20:01.463Z,29.23
2019-01-21T01:22:28.653Z,28.93
2019-01-21T01:24:55.920Z,28.30
2019-01-21T01:27:23.139Z,24.43
2019-01-21T01:29:50.296Z,27.97
2019-01-21T01:32:17.483Z,28.80
2019-01-21T01:34:44.670Z,27.83
2019-01-21T01:37:11.858Z,25.77
2019-01-21T01:39:39.023Z,32.00
2019-01-21T01:42:06.235Z,29.30
2019-01-21T01:44:33.495Z,26.13
2019-01-21T01:47:00.670Z,24.43
2019-01-21T01:49:27.843Z,28.03
2019-01-21T01:51:55.027Z,32.13
2019-01-21T01:54:22.221Z,32.40
2019-01-21T01:56:49.471Z,28.10
2019-01-21T01:59:16.737Z,34.70
2019-01-21T02:01:43.925Z,32.07
2019-01-21T02:04:11.181Z,28.20
2019-01-21T02:06:38.359Z,28.27
2019-01-21T02:09:06.298Z,24.90
2019-01-21T02:11:33.505Z,32.27
2019-01-21T02:14:00.686Z,32.47
2019-01-21T02:16:27.870Z,42.27
2019-01-21T02:18:55.069Z,29.27
2019-01-21T02:21:22.310Z,28.90
2019-01-21T02:23:50.931Z,29.47
2019-01-21T02:26:18.896Z,27.97
2019-01-21T02:28:47.769Z,30.83
2019-01-21T02:31:22.306Z,28.30
2019-01-21T02:33:57.055Z,33.90
2019-01-21T02:36:42.355Z,30.20
2019-01-21T02:39:17.259Z,33.87
2019-01-21T02:41:44.959Z,29.20
2019-01-21T02:44:13.817Z,30.10
2019-01-21T02:46:42.905Z,29.57
2019-01-21T02:49:29.898Z,25.20
2019-01-21T02:52:15.322Z,27.50
2019-01-21T02:54:50.055Z,27.23
2019-01-21T02:57:21.868Z,28.43
2019-01-21T02:59:50.716Z,31.37
2019-01-21T03:02:25.623Z,31.40
2019-01-21T03:04:54.812Z,28.73
2019-01-21T03:07:23.709Z,27.30
2019-01-21T03:09:52.524Z,30.37
2019-01-21T03:12:21.364Z,36.10
2019-01-21T03:14:53.320Z,26.00
2019-01-21T03:17:25.354Z,29.83
2019-01-21T03:20:03.151Z,33.03
2019-01-21T03:22:32.022Z,34.73
2019-01-21T03:25:00.851Z,33.60
2019-01-21T03:27:33.188Z,35.13
2019-01-21T03:30:04.971Z,38.83
2019-01-21T03:32:33.769Z,29.47
2019-01-21T03:35:05.533Z,32.33
2019-01-21T03:37:40.311Z,31.80
2019-01-21T03:40:18.043Z,30.03
2019-01-21T03:42:46.855Z,27.87
2019-01-21T03:45:32.073Z,29.17
2019-01-21T03:48:00.887Z,28.27
2019-01-21T03:50:29.787Z,33.63
2019-01-21T03:52:58.630Z,36.70
2019-01-21T03:55:25.895Z,30.50
2019-01-21T03:57:54.791Z,34.17
2019-01-21T04:00:32.886Z,34.47
2019-01-21T04:03:22.179Z,33.23
2019-01-21T04:05:53.699Z,33.73
2019-01-21T04:08:31.353Z,36.37
2019-01-21T04:11:00.151Z,44.47
2019-01-21T04:13:31.726Z,37.00
2019-01-21T04:16:09.763Z,37.67
2019-01-21T04:18:55.307Z,36.93
2019-01-21T04:21:26.775Z,34.53
2019-01-21T04:23:55.577Z,32.67
2019-01-21T04:26:27.279Z,38.70
2019-01-21T04:28:56.079Z,36.53
2019-01-21T04:31:27.629Z,37.80
2019-01-21T04:33:59.170Z,35.10
2019-01-21T04:36:40.050Z,30.93
2019-01-21T04:39:08.867Z,33.87
2019-01-21T04:41:38.635Z,34.50
2019-01-21T04:44:13.258Z,39.73
2019-01-21T04:46:42.080Z,34.27
2019-01-21T04:49:11.868Z,33.83
2019-01-21T04:51:40.695Z,34.07
2019-01-21T04:54:15.351Z,33.67
2019-01-21T04:56:46.922Z,34.93
2019-01-21T04:59:32.030Z,35.13
2019-01-21T05:02:17.399Z,35.67
2019-01-21T05:05:02.612Z,36.63
2019-01-21T05:07:34.093Z,36.23
2019-01-21T05:10:11.585Z,40.63
2019-01-21T05:12:40.486Z,38.20
2019-01-21T05:15:09.304Z,36.17
2019-01-21T05:17:41.122Z,42.03
2019-01-21T05:20:12.622Z,42.23
2019-01-21T05:22:41.491Z,40.10
2019-01-21T05:25:16.244Z,41.37
2019-01-21T05:27:46.130Z,37.23
2019-01-21T05:30:23.786Z,41.43
2019-01-21T05:33:04.575Z,40.27
2019-01-21T05:35:33.415Z,36.37
2019-01-21T05:38:02.259Z,40.43
2019-01-21T05:40:46.330Z,40.13
2019-01-21T05:43:17.943Z,37.13
2019-01-21T05:46:02.912Z,33.53
2019-01-21T05:48:49.876Z,42.73
2019-01-21T05:51:21.146Z,38.83
2019-01-21T05:53:50.010Z,40.20
2019-01-21T05:56:24.666Z,43.23
2019-01-21T05:59:09.693Z,38.53
2019-01-21T06:01:44.345Z,38.23
2019-01-21T06:04:15.886Z,41.00
2019-01-21T06:07:02.493Z,120.13
2019-01-21T06:09:34.064Z,46.87
2019-01-21T06:12:11.794Z,37.77
2019-01-21T06:14:56.806Z,40.00
2019-01-21T06:17:34.785Z,39.93
2019-01-21T06:20:03.662Z,39.83
2019-01-21T06:22:35.146Z,37.17
2019-01-21T06:25:03.991Z,41.67
2019-01-21T06:27:41.574Z,44.37
2019-01-21T06:30:10.378Z,34.20
2019-01-21T06:32:39.222Z,40.20
2019-01-21T06:35:23.124Z,37.63
2019-01-21T06:37:57.628Z,35.43
2019-01-21T06:40:32.404Z,36.83
2019-01-21T06:43:13.026Z,40.57
2019-01-21T06:45:56.594Z,42.40
2019-01-21T06:48:28.432Z,36.83
2019-01-21T06:51:09.035Z,35.07
2019-01-21T06:53:40.749Z,37.10
2019-01-21T06:56:25.741Z,37.43
2019-01-21T06:59:06.118Z,38.60
2019-01-21T07:01:37.404Z,45.20
2019-01-21T07:04:06.221Z,39.17
2019-01-21T07:06:35.028Z,44.33
2019-01-21T07:09:04.008Z,46.30
2019-01-21T07:11:38.810Z,40.93
2019-01-21T07:14:16.263Z,43.47
2019-01-21T07:16:59.902Z,42.53
2019-01-21T07:19:28.762Z,43.87
2019-01-21T07:22:09.465Z,41.37
2019-01-21T07:24:38.302Z,40.07
2019-01-21T07:27:22.023Z,45.10
2019-01-21T07:30:07.443Z,43.37
2019-01-21T07:32:36.262Z,40.97
2019-01-21T07:35:21.770Z,41.03
2019-01-21T07:37:59.392Z,43.90
2019-01-21T07:40:37.174Z,39.03
2019-01-21T07:43:09.063Z,44.87
2019-01-21T07:45:41.345Z,55.77
2019-01-21T07:48:14.391Z,47.70
2019-01-21T07:50:46.116Z,51.67
2019-01-21T07:53:32.966Z,47.53
2019-01-21T07:56:10.528Z,41.03
2019-01-21T07:58:51.077Z,49.67
2019-01-21T08:01:28.806Z,53.17
2019-01-21T08:04:12.486Z,50.83
2019-01-21T08:06:52.926Z,42.03
2019-01-21T08:09:21.763Z,50.03
2019-01-21T08:11:59.361Z,44.33
2019-01-21T08:14:30.749Z,46.47
2019-01-21T08:17:15.786Z,46.23
2019-01-21T08:19:47.089Z,44.20
2019-01-21T08:22:24.905Z,43.50
2019-01-21T08:24:56.342Z,47.57
2019-01-21T10:02:14.801Z,60.90
2019-01-21T10:04:43.538Z,58.97
2019-01-21T10:07:12.353Z,64.90
2019-01-21T10:09:41.172Z,54.17
2019-01-21T10:12:09.993Z,52.23
2019-01-21T10:14:38.835Z,62.07
2019-01-21T10:17:07.659Z,50.03
2019-01-21T10:19:39.193Z,60.30
2019-01-21T10:22:11.059Z,101.50
2019-01-21T10:24:51.929Z,58.67
2019-01-21T10:27:26.692Z,65.67
2019-01-21T10:30:04.775Z,57.20
2019-01-21T10:32:50.477Z,57.03
2019-01-21T10:35:24.974Z,64.60
2019-01-21T10:38:02.473Z,65.70
2019-01-21T10:40:31.299Z,67.17
2019-01-21T10:43:00.161Z,78.70
2019-01-21T10:45:29.003Z,74.77
2019-01-21T10:47:57.906Z,67.13
2019-01-21T10:50:41.978Z,78.00
2019-01-21T10:53:22.754Z,90.00
2019-01-21T10:55:54.514Z,67.97
2019-01-21T10:58:23.360Z,57.93
2019-01-21T11:00:57.847Z,61.57
2019-01-21T11:03:29.608Z,67.10
2019-01-21T11:05:58.437Z,68.53
2019-01-21T11:08:30.224Z,64.27
2019-01-21T11:11:02.001Z,52.00
2019-01-21T11:13:39.800Z,77.80
2019-01-21T11:16:08.646Z,60.50
2019-01-21T11:18:40.226Z,58.07
2019-01-21T11:21:11.959Z,56.50
2019-01-21T11:23:40.778Z,68.97
2019-01-21T11:26:15.734Z,60.83
2019-01-21T11:28:59.460Z,63.03
2019-01-21T11:31:40.127Z,70.07
2019-01-21T11:34:11.636Z,57.83
2019-01-21T11:36:40.464Z,57.70
2019-01-21T11:39:09.301Z,59.63
2019-01-21T11:41:43.806Z,53.70
2019-01-21T11:44:12.634Z,54.70
2019-01-21T11:46:41.454Z,62.07
2019-01-21T11:49:19.023Z,56.30
2019-01-21T11:51:53.530Z,54.00
2019-01-21T11:54:25.000Z,48.37
2019-01-21T11:56:53.852Z,51.57
2019-01-21T11:59:22.676Z,55.07
2019-01-21T12:01:57.588Z,49.87
2019-01-21T12:04:32.409Z,51.47
2019-01-21T12:07:17.997Z,47.57
2019-01-21T12:09:49.527Z,47.60
2019-01-21T12:12:21.102Z,50.40
2019-01-21T12:14:52.649Z,47.00
2019-01-21T12:17:24.125Z,46.77
2019-01-21T12:19:52.950Z,44.43
2019-01-21T12:22:30.678Z,48.53
2019-01-21T12:24:59.585Z,49.93
2019-01-21T12:27:34.466Z,45.03
2019-01-21T12:30:06.031Z,50.60
2019-01-21T12:32:46.797Z,45.73
2019-01-21T12:35:18.558Z,47.03
2019-01-21T12:37:47.465Z,43.27
2019-01-21T12:40:16.271Z,44.43
2019-01-21T12:42:51.174Z,45.10
2019-01-21T12:45:19.998Z,45.10
2019-01-21T12:47:51.829Z,42.20
2019-01-21T12:50:35.869Z,41.27
2019-01-21T12:53:04.759Z,39.33
2019-01-21T12:55:39.718Z,36.23
2019-01-21T12:58:14.590Z,35.73
2019-01-21T13:00:46.292Z,39.10
2019-01-21T13:03:30.059Z,41.27
2019-01-21T13:05:58.980Z,38.07
2019-01-21T13:08:27.882Z,36.33
2019-01-21T13:11:05.472Z,36.63
2019-01-21T13:13:34.364Z,37.10
2019-01-21T13:16:04.186Z,45.33
2019-01-21T13:18:33.178Z,44.43
2019-01-21T13:21:02.018Z,43.13
2019-01-21T13:23:33.759Z,41.07
2019-01-21T13:26:11.318Z,47.10
2019-01-21T13:28:40.239Z,42.00
2019-01-21T13:31:09.074Z,41.67
2019-01-21T13:33:54.562Z,47.20
2019-01-21T13:36:29.519Z,43.70
2019-01-21T13:39:16.631Z,44.83
2019-01-21T13:41:51.440Z,43.60
2019-01-21T13:44:22.973Z,40.33
2019-01-21T13:47:08.279Z,47.47
2019-01-21T13:49:37.118Z,46.50
2019-01-21T13:52:21.105Z,42.33
2019-01-21T13:54:59.088Z,41.90
2019-01-21T13:57:42.875Z,42.27
2019-01-21T14:00:11.696Z,40.00
2019-01-21T14:02:40.529Z,43.13
2019-01-21T14:05:30.871Z,41.57
2019-01-21T14:07:55.048Z,42.90
2019-01-21T14:10:41.785Z,44.87
2019-01-21T14:13:26.564Z,50.00
2019-01-21T14:15:56.130Z,46.77
2019-01-21T14:18:41.414Z,46.90
2019-01-21T14:21:11.197Z,39.97
2019-01-21T14:23:40.584Z,44.00
2019-01-21T14:26:26.094Z,53.00
2019-01-21T14:29:00.578Z,40.63
2019-01-21T14:31:32.083Z,44.50
2019-01-21T14:34:09.719Z,42.67
2019-01-21T14:36:47.377Z,43.13
2019-01-21T14:39:18.976Z,44.67
2019-01-21T14:42:05.844Z,47.73
2019-01-21T14:44:49.865Z,38.17
2019-01-21T14:47:18.777Z,38.73
2019-01-21T14:49:53.479Z,43.10
2019-01-21T14:52:40.521Z,50.77
2019-01-21T14:55:15.108Z,38.70
2019-01-21T14:57:49.729Z,45.07
2019-01-21T15:00:24.652Z,46.93
2019-01-21T15:02:56.519Z,45.20
2019-01-21T15:05:25.357Z,43.53
2019-01-21T15:07:54.262Z,45.67
2019-01-21T15:10:28.972Z,51.33
2019-01-21T15:12:57.844Z,43.47
2019-01-21T15:15:43.063Z,46.40
2019-01-21T15:18:12.017Z,44.77
2019-01-21T15:20:43.677Z,45.60
2019-01-21T15:23:15.221Z,44.03
2019-01-21T15:25:46.743Z,47.57
2019-01-21T15:28:30.588Z,46.83
2019-01-21T15:31:05.609Z,48.73
2019-01-21T15:33:37.253Z,51.97
2019-01-21T15:36:22.631Z,48.03
2019-01-21T15:38:57.361Z,52.00
2019-01-21T15:41:26.362Z,45.57
2019-01-21T15:43:57.945Z,49.67
2019-01-21T15:46:29.742Z,57.13
2019-01-21T15:48:58.578Z,45.50
2019-01-21T15:51:30.382Z,50.03
2019-01-21T15:54:01.886Z,60.70
2019-01-21T15:56:30.714Z,52.43
2019-01-21T15:59:05.513Z,51.60
2019-01-21T16:01:43.058Z,51.23
2019-01-21T16:04:11.898Z,53.43
2019-01-21T16:06:43.464Z,56.63
2019-01-21T16:09:15.125Z,46.43
2019-01-21T16:11:44.009Z,52.93
2019-01-21T16:14:11.204Z,54.43
2019-01-21T16:16:46.005Z,55.27
2019-01-21T16:19:14.279Z,54.27
2019-01-21T16:21:48.874Z,58.03
2019-01-21T16:24:17.730Z,50.33
2019-01-21T16:26:47.312Z,48.47
2019-01-21T16:29:16.189Z,54.30
2019-01-21T16:31:44.285Z,57.93
2019-01-21T16:34:22.030Z,55.67
2019-01-21T16:36:50.856Z,55.97
2019-01-21T16:39:19.692Z,59.10
2019-01-21T16:41:51.271Z,52.23
2019-01-21T16:44:18.548Z,59.67
2019-01-21T16:46:45.797Z,62.90
2019-01-21T16:49:13.065Z,54.47
2019-01-21T16:51:40.253Z,61.40
2019-01-21T16:54:07.480Z,63.67
2019-01-21T16:56:34.669Z,64.23
2019-01-21T16:59:01.938Z,61.40
2019-01-21T17:01:29.180Z,63.00
2019-01-21T17:03:56.452Z,60.80
2019-01-21T17:06:23.721Z,68.83
2019-01-21T17:08:51.059Z,62.67
2019-01-21T17:11:18.323Z,59.77
2019-01-21T17:13:45.521Z,61.70
2019-01-21T17:16:12.741Z,60.13
2019-01-21T17:18:40.005Z,62.13
2019-01-21T17:21:07.427Z,59.63
2019-01-21T17:23:34.632Z,66.17
2019-01-21T17:26:01.837Z,61.70
2019-01-21T17:28:29.043Z,71.20
2019-01-21T17:30:56.299Z,67.47
2019-01-21T17:33:23.504Z,70.77
2019-01-21T17:35:50.796Z,62.20
2019-01-21T17:38:18.014Z,62.57
2019-01-21T17:40:45.341Z,68.17
2019-01-21T17:43:12.569Z,57.17
2019-01-21T17:45:39.768Z,59.53
2019-01-21T17:48:07.010Z,63.47
2019-01-21T17:50:34.270Z,62.57
2019-01-21T17:53:01.509Z,63.33
2019-01-21T17:55:28.773Z,63.97
2019-01-21T17:57:56.044Z,72.93
2019-01-21T18:00:24.146Z,58.60
2019-01-21T18:02:51.545Z,59.77
2019-01-21T18:05:18.736Z,65.03
2019-01-21T18:07:46.032Z,66.30
2019-01-21T18:10:17.016Z,65.63
2019-01-21T18:12:44.283Z,70.13
2019-01-21T18:15:12.313Z,72.83
2019-01-21T18:17:39.503Z,73.03
2019-01-21T18:20:08.469Z,70.60
2019-01-21T18:22:35.710Z,61.63
2019-01-21T18:25:03.085Z,72.27
2019-01-21T18:27:30.289Z,70.53
2019-01-21T18:29:58.127Z,77.13
2019-01-21T18:32:25.398Z,69.20
2019-01-21T18:34:52.647Z,63.63
2019-01-21T18:37:19.921Z,68.30
2019-01-21T18:39:47.509Z,64.87
2019-01-21T18:42:14.754Z,70.67
2019-01-21T18:44:41.943Z,73.13
2019-01-21T18:47:09.240Z,67.90
2019-01-21T18:49:36.431Z,73.37
2019-01-21T18:52:03.641Z,59.03
2019-01-21T18:54:30.861Z,73.67
2019-01-21T18:56:58.068Z,64.53
2019-01-21T18:59:25.353Z,65.30
2019-01-21T19:01:52.614Z,75.00
2019-01-21T19:04:19.855Z,63.57
2019-01-21T19:06:47.067Z,67.53
2019-01-21T19:09:14.254Z,69.20
2019-01-21T19:11:41.458Z,67.80
2019-01-21T19:14:08.670Z,69.23
2019-01-21T19:16:35.903Z,68.27
2019-01-21T19:19:03.219Z,67.00
2019-01-21T19:21:32.049Z,67.70
2019-01-21T19:23:59.307Z,77.10
2019-01-21T19:26:26.538Z,72.27
2019-01-21T19:28:53.767Z,63.63
2019-01-21T19:31:20.974Z,74.00
2019-01-21T19:33:48.243Z,74.17
2019-01-21T19:36:15.596Z,75.10
2019-01-21T19:38:42.878Z,76.57
2019-01-21T19:41:10.082Z,71.33
2019-01-21T19:43:37.274Z,74.60
2019-01-21T19:46:04.489Z,68.80
2019-01-21T19:48:31.691Z,73.60
2019-01-21T19:50:58.880Z,78.27
2019-01-21T19:53:26.092Z,75.17
2019-01-21T19:55:53.274Z,71.20
2019-01-21T19:58:20.481Z,68.43
2019-01-21T20:00:48.976Z,72.47
2019-01-21T20:03:16.213Z,77.43
2019-01-21T20:05:43.431Z,79.10
2019-01-21T20:08:10.659Z,77.17
2019-01-21T20:10:37.908Z,72.70
2019-01-21T20:13:05.251Z,78.30
2019-01-21T20:15:32.451Z,72.07
2019-01-21T20:17:59.816Z,77.53
2019-01-21T20:20:31.385Z,73.20
2019-01-21T20:22:58.669Z,73.93
2019-01-21T20:25:25.984Z,81.23
2019-01-21T20:27:53.239Z,81.70
2019-01-21T20:30:22.084Z,89.47
2019-01-21T20:32:49.417Z,79.03
2019-01-21T20:35:16.750Z,75.23
2019-01-21T20:37:44.083Z,75.30
2019-01-21T20:40:18.906Z,83.17
2019-01-21T20:42:46.154Z,79.60
2019-01-21T20:45:14.584Z,79.43
2019-01-21T20:47:42.133Z,84.70
2019-01-21T20:50:10.988Z,77.23
2019-01-21T20:52:38.274Z,83.23
2019-01-21T20:55:06.435Z,74.57
2019-01-21T20:57:33.632Z,70.13
2019-01-21T21:00:00.864Z,78.53
2019-01-21T21:02:28.167Z,82.83
2019-01-21T21:04:55.439Z,75.93
2019-01-21T21:07:22.813Z,81.90
2019-01-21T21:09:50.064Z,74.97
2019-01-21T21:12:17.276Z,80.70
2019-01-21T21:14:44.555Z,73.60
2019-01-21T21:17:11.823Z,81.30
2019-01-21T21:19:39.132Z,75.50
2019-01-21T21:22:06.355Z,77.70
2019-01-21T21:24:33.645Z,78.20
2019-01-21T21:27:00.838Z,75.97
2019-01-21T21:29:29.462Z,71.77
2019-01-21T21:31:57.008Z,90.27
2019-01-21T21:34:24.275Z,76.37
2019-01-21T21:36:51.561Z,77.90
2019-01-21T21:39:18.850Z,78.00
2019-01-21T21:41:46.116Z,80.50
2019-01-21T21:44:13.388Z,86.53
2019-01-21T21:46:41.138Z,76.00
2019-01-21T21:49:08.444Z,70.90
2019-01-21T21:51:35.749Z,78.20
2019-01-21T21:54:02.986Z,74.57
2019-01-21T21:56:30.261Z,72.87
2019-01-21T21:58:57.536Z,82.27
2019-01-21T22:01:25.056Z,81.60
2019-01-21T22:03:52.430Z,77.00
2019-01-21T22:06:19.737Z,71.27
2019-01-21T22:08:47.050Z,73.27
2019-01-21T22:11:14.296Z,78.80
2019-01-21T22:13:41.639Z,66.43
2019-01-21T22:16:08.899Z,87.20
2019-01-21T22:18:36.170Z,83.23
2019-01-21T22:21:03.456Z,81.60
2019-01-21T22:23:31.061Z,79.23
2019-01-21T22:25:58.344Z,87.20
2019-01-21T22:28:25.617Z,81.00
2019-01-21T22:30:52.815Z,80.20
2019-01-21T22:33:20.151Z,82.03
2019-01-21T22:35:47.470Z,75.03
2019-01-21T22:38:14.758Z,78.03
2019-01-21T22:40:42.072Z,71.73
2019-01-21T22:43:09.432Z,83.73
2019-01-21T22:45:36.717Z,86.10
2019-01-21T22:48:03.980Z,78.00
2019-01-21T22:50:31.296Z,78.33
2019-01-21T22:52:58.561Z,84.93
2019-01-21T22:55:25.820Z,80.53
2019-01-21T22:57:53.104Z,82.63
2019-01-21T23:00:32.339Z,75.20
2019-01-21T23:02:59.684Z,77.30
2019-01-21T23:05:26.890Z,83.70
2019-01-21T23:07:54.079Z,77.37
2019-01-21T23:10:21.383Z,75.03
2019-01-21T23:12:48.648Z,77.13
2019-01-21T23:15:15.916Z,74.90
2019-01-21T23:17:43.240Z,75.93
2019-01-21T23:20:10.547Z,82.63
2019-01-21T23:22:37.814Z,79.10
2019-01-21T23:25:05.350Z,85.97
2019-01-21T23:27:32.654Z,71.90
2019-01-21T23:29:59.944Z,75.70
2019-01-21T23:32:27.270Z,80.60
2019-01-21T23:34:54.551Z,76.50
2019-01-21T23:37:21.837Z,76.50
2019-01-21T23:39:49.161Z,77.47
2019-01-21T23:42:16.456Z,76.03
2019-01-21T23:44:44.525Z,72.47
2019-01-21T23:47:11.812Z,79.63
2019-01-21T23:49:39.183Z,77.07
2019-01-21T23:52:06.908Z,74.80
2019-01-21T23:54:34.191Z,76.67
2019-01-21T23:57:01.485Z,82.37
2019-01-21T23:59:28.958Z,75.63
